Time;durP1;ratioP1;P1;durP2;ratioP2;P2;SDS_P1;SDS_P2;PMS_P1;PMS_P2;Temp;Humidity;BMP_temperature;BMP_pressure;BME280_temperature;BME280_humidity;BME280_pressure;Samples;Min_cycle;Max_cycle;Signal;HPM_P1;HPM_P2
2022/03/02 00:01:44;;;;;;;2.00;1.30;;;;;;;13.39;28.52;97539.59;5032158;28;20040;-31
2022/03/02 00:04:10;;;;;;;2.55;1.92;;;;;;;13.40;28.19;97532.97;5032443;28;20054;-32
2022/03/02 00:06:36;;;;;;;2.42;1.70;;;;;;;13.40;28.23;97535.69;5032427;28;20044;-31
2022/03/02 00:09:03;;;;;;;4.95;2.03;;;;;;;13.43;28.44;97539.53;5032262;28;20035;-32
2022/03/02 00:11:29;;;;;;;2.35;1.52;;;;;;;13.39;28.13;97539.59;5032192;28;20083;-32
2022/03/02 00:13:55;;;;;;;2.80;1.67;;;;;;;13.39;28.72;97549.72;5032197;28;20041;-31
2022/03/02 00:16:23;;;;;;;2.08;1.60;;;;;;;13.35;28.36;97554.50;5032048;28;20212;-32
2022/03/02 00:18:49;;;;;;;2.20;1.58;;;;;;;13.41;28.49;97547.34;5032501;28;20501;-32
2022/03/02 00:21:15;;;;;;;2.17;1.40;;;;;;;13.34;28.72;97542.03;5034128;28;20512;-31
2022/03/02 00:23:41;;;;;;;3.05;1.67;;;;;;;13.38;28.22;97545.47;5033282;28;20037;-31
2022/03/02 00:26:07;;;;;;;2.58;1.33;;;;;;;13.36;28.46;97556.00;5033950;28;20071;-32
2022/03/02 00:28:32;;;;;;;2.72;1.55;;;;;;;13.37;28.39;97557.53;5034126;28;20026;-31
2022/03/02 00:30:58;;;;;;;3.28;1.92;;;;;;;13.43;28.57;97550.44;5033902;28;20436;-32
2022/03/02 00:33:24;;;;;;;2.20;1.70;;;;;;;13.39;28.44;97552.44;5033896;28;20022;-32
2022/03/02 00:35:50;;;;;;;2.78;1.60;;;;;;;13.35;28.76;97547.09;5034004;28;20028;-32
2022/03/02 00:38:15;;;;;;;2.30;1.42;;;;;;;13.35;28.84;97541.63;5033749;28;20033;-31
2022/03/02 00:40:42;;;;;;;2.38;1.75;;;;;;;13.32;28.65;97542.47;5033795;28;20075;-31
2022/03/02 00:43:09;;;;;;;4.95;1.80;;;;;;;13.31;28.78;97535.47;5033832;28;20032;-31
2022/03/02 00:45:35;;;;;;;2.03;1.45;;;;;;;13.42;28.51;97530.59;5033672;28;20026;-31
2022/03/02 00:48:02;;;;;;;2.85;1.70;;;;;;;13.40;28.36;97532.97;5033645;28;20017;-31
2022/03/02 00:50:29;;;;;;;2.92;1.90;;;;;;;13.37;28.87;97531.06;5033690;28;20074;-31
2022/03/02 00:52:55;;;;;;;3.20;1.50;;;;;;;13.28;28.52;97525.41;5033810;28;20382;-32
2022/03/02 00:55:22;;;;;;;3.30;1.60;;;;;;;13.31;28.74;97521.84;5033748;28;20032;-31
2022/03/02 00:57:47;;;;;;;2.42;1.30;;;;;;;13.40;28.58;97524.00;5033596;28;20075;-31
2022/03/02 01:00:15;;;;;;;2.45;1.33;;;;;;;13.34;28.97;97515.56;5032982;28;20055;-32
2022/03/02 01:02:41;;;;;;;2.10;1.50;;;;;;;13.32;28.76;97506.28;5033372;28;20060;-31
2022/03/02 01:05:08;;;;;;;3.08;1.48;;;;;;;13.46;28.50;97508.72;5030187;28;20033;-31
2022/03/02 01:07:34;;;;;;;2.28;1.67;;;;;;;13.35;28.55;97503.50;5033110;28;20393;-33
2022/03/02 01:10:02;;;;;;;2.03;1.50;;;;;;;13.46;28.46;97500.56;5033386;28;20032;-33
2022/03/02 01:12:28;;;;;;;3.33;1.67;;;;;;;13.34;28.73;97499.22;5032006;28;20128;-31
2022/03/02 01:14:54;;;;;;;2.15;1.55;;;;;;;13.28;29.04;97498.94;5033441;28;20530;-31
2022/03/02 01:17:20;;;;;;;2.30;1.42;;;;;;;13.32;28.85;97501.59;5033648;28;20087;-31
2022/03/02 01:19:47;;;;;;;3.55;1.80;;;;;;;13.39;28.82;97500.69;5033348;28;20373;-31
2022/03/02 01:22:13;;;;;;;3.22;1.88;;;;;;;13.25;28.70;97497.03;5033300;28;20440;-31
2022/03/02 01:24:39;;;;;;;2.10;1.50;;;;;;;13.24;28.96;97495.50;5033522;28;20025;-32
2022/03/02 01:27:04;;;;;;;1.95;1.60;;;;;;;13.28;28.59;97488.03;5033297;28;20052;-31
2022/03/02 01:29:33;;;;;;;2.00;1.58;;;;;;;13.38;29.01;97499.13;5033321;28;20096;-31
2022/03/02 01:32:00;;;;;;;2.88;1.80;;;;;;;13.40;28.60;97499.50;5032974;28;20057;-31
2022/03/02 01:34:26;;;;;;;2.83;1.67;;;;;;;13.27;28.77;97500.13;5033176;28;20544;-31
2022/03/02 01:36:51;;;;;;;3.58;1.60;;;;;;;13.24;28.95;97500.94;5036719;28;20067;-31
2022/03/02 01:39:17;;;;;;;2.33;1.50;;;;;;;13.40;28.83;97511.16;5037386;28;20028;-31
2022/03/02 01:41:43;;;;;;;3.05;1.70;;;;;;;13.38;28.61;97512.75;5037289;28;20021;-33
2022/03/02 01:44:09;;;;;;;3.58;1.63;;;;;;;13.39;28.89;97506.13;5037327;28;20025;-31
2022/03/02 01:46:35;;;;;;;2.25;1.40;;;;;;;13.49;28.90;97505.91;5037002;28;20082;-31
2022/03/02 01:49:01;;;;;;;2.72;1.83;;;;;;;13.48;28.55;97509.06;5037125;28;20424;-31
2022/03/02 01:51:27;;;;;;;2.42;1.80;;;;;;;13.32;28.62;97504.31;5037149;28;20043;-31
2022/03/02 01:53:52;;;;;;;3.13;1.73;;;;;;;13.43;28.90;97502.16;5035558;28;20074;-31
2022/03/02 01:56:18;;;;;;;3.75;1.88;;;;;;;13.37;28.69;97503.03;5036837;28;20104;-33
2022/03/02 01:58:45;;;;;;;2.22;1.67;;;;;;;13.40;28.64;97502.22;5036635;28;20030;-31
2022/03/02 02:01:11;;;;;;;3.17;1.95;;;;;;;13.38;29.02;97499.91;5036884;28;20029;-31
2022/03/02 02:03:38;;;;;;;2.42;1.60;;;;;;;13.34;29.09;97499.22;5036484;28;20041;-31
2022/03/02 02:06:05;;;;;;;2.83;1.70;;;;;;;13.34;28.99;97499.22;5036651;28;20051;-31
2022/03/02 02:08:31;;;;;;;2.95;1.55;;;;;;;13.28;28.89;97493.47;5036788;28;20366;-33
2022/03/02 02:10:59;;;;;;;3.05;1.45;;;;;;;13.25;28.80;97488.09;5036468;28;20021;-31
2022/03/02 02:13:25;;;;;;;3.63;1.60;;;;;;;13.23;28.82;97491.22;5036432;28;20040;-32
2022/03/02 02:15:53;;;;;;;2.45;1.63;;;;;;;13.38;28.92;97478.09;5036453;28;20032;-31
2022/03/02 02:18:19;;;;;;;2.78;1.80;;;;;;;13.39;29.05;97485.09;5036334;28;20032;-31
2022/03/02 02:20:45;;;;;;;3.65;1.88;;;;;;;13.23;29.13;97491.22;5036420;28;20384;-31
2022/03/02 02:23:12;;;;;;;1.58;1.25;;;;;;;13.25;29.29;97493.53;5036301;28;20029;-31
2022/03/02 02:25:38;;;;;;;2.03;1.40;;;;;;;13.24;28.94;97492.00;5036346;28;20113;-31
2022/03/02 02:28:03;;;;;;;2.85;1.60;;;;;;;13.25;28.87;97488.09;5036248;28;20049;-32
2022/03/02 02:30:31;;;;;;;2.38;1.48;;;;;;;13.27;29.29;97486.50;5036015;28;20036;-31
2022/03/02 02:32:57;;;;;;;2.30;1.63;;;;;;;13.19;29.18;97482.38;5036143;28;20025;-31
2022/03/02 02:35:24;;;;;;;2.40;1.63;;;;;;;13.27;29.12;97483.75;5036077;28;20034;-31
2022/03/02 02:37:50;;;;;;;2.33;1.63;;;;;;;13.21;29.25;97480.00;5036050;28;20052;-31
2022/03/02 02:40:19;;;;;;;2.90;1.70;;;;;;;13.23;29.26;97483.06;5036025;28;20025;-31
2022/03/02 02:42:46;;;;;;;4.00;2.60;;;;;;;13.27;28.72;97483.75;5035954;28;20094;-32
2022/03/02 02:45:17;;;;;;;3.13;1.52;;;;;;;13.19;29.00;97471.47;5035827;28;20028;-31
2022/03/02 02:47:44;;;;;;;2.45;1.45;;;;;;;13.27;29.07;97466.66;5035096;28;20045;-32
2022/03/02 02:50:18;;;;;;;2.75;1.40;;;;;;;13.37;28.70;97478.53;5035856;28;20425;-31
2022/03/02 02:52:43;;;;;;;3.60;1.83;;;;;;;13.32;29.17;97463.44;5035742;28;20068;-31
2022/03/02 02:55:10;;;;;;;5.18;1.70;;;;;;;13.22;29.11;97456.25;5035670;28;20070;-31
2022/03/02 02:57:36;;;;;;;2.60;1.73;;;;;;;13.22;29.14;97454.31;5034608;28;20369;-31
2022/03/02 03:00:07;;;;;;;4.05;2.00;;;;;;;13.26;29.05;97452.25;5035614;28;20026;-32
2022/03/02 03:02:33;;;;;;;2.38;1.60;;;;;;;13.31;29.06;97456.47;5035459;28;20042;-31
2022/03/02 03:04:59;;;;;;;1.65;1.55;;;;;;;13.26;29.24;97454.22;5035495;28;20024;-31
2022/03/02 03:07:25;;;;;;;2.22;1.75;;;;;;;13.25;28.73;97458.13;5035634;28;20087;-31
2022/03/02 03:09:51;;;;;;;3.75;1.60;;;;;;;13.19;28.96;97460.59;5034196;28;20441;-33
2022/03/02 03:12:17;;;;;;;3.28;1.70;;;;;;;13.19;29.28;97460.59;5035904;28;20025;-31
2022/03/02 03:14:43;;;;;;;2.75;1.55;;;;;;;13.29;28.92;97445.97;5035592;28;20040;-31
2022/03/02 03:17:09;;;;;;;2.75;1.70;;;;;;;13.21;28.99;97441.88;5035319;28;20025;-31
2022/03/02 03:19:34;;;;;;;2.67;1.58;;;;;;;13.17;29.39;97437.66;5035338;28;20060;-31
2022/03/02 03:22:07;;;;;;;1.98;1.45;;;;;;;13.18;28.98;97442.69;5035567;28;20043;-31
2022/03/02 03:24:33;;;;;;;2.35;1.65;;;;;;;13.14;28.93;97443.91;5035318;28;20029;-31
2022/03/02 03:26:59;;;;;;;2.25;1.48;;;;;;;13.15;29.02;97435.34;5035147;28;20044;-32
2022/03/02 03:29:25;;;;;;;2.40;1.60;;;;;;;13.27;29.28;97433.97;5035088;28;20029;-32
2022/03/02 03:31:51;;;;;;;2.15;1.55;;;;;;;13.37;29.14;97432.97;5033889;28;20063;-31
2022/03/02 03:34:16;;;;;;;2.30;1.80;;;;;;;13.25;28.80;97441.78;5035124;28;20026;-32
2022/03/02 03:36:43;;;;;;;2.35;1.40;;;;;;;13.27;29.21;97431.25;5034881;28;20030;-31
2022/03/02 03:39:09;;;;;;;3.22;1.80;;;;;;;13.27;28.85;97432.00;5035048;28;20025;-31
2022/03/02 03:41:35;;;;;;;2.30;1.63;;;;;;;13.18;29.12;97426.34;5034752;28;20013;-31
2022/03/02 03:44:01;;;;;;;2.72;1.73;;;;;;;13.18;29.22;97414.69;5034841;28;20151;-31
2022/03/02 03:46:27;;;;;;;5.10;1.75;;;;;;;13.24;29.00;97415.72;5035164;28;20417;-32
2022/03/02 03:48:53;;;;;;;2.20;1.67;;;;;;;13.16;28.99;97426.00;5034648;28;20152;-31
2022/03/02 03:51:19;;;;;;;2.20;1.50;;;;;;;13.22;29.25;97420.84;5034598;28;20029;-31
2022/03/02 03:53:45;;;;;;;3.25;1.83;;;;;;;13.24;28.99;97416.50;5034746;28;20029;-33
2022/03/02 03:56:11;;;;;;;2.65;1.50;;;;;;;13.23;29.05;97422.34;5034839;28;20029;-31
2022/03/02 03:58:37;;;;;;;3.05;1.70;;;;;;;13.23;29.07;97414.94;5034428;28;20030;-31
2022/03/02 04:01:03;;;;;;;4.40;1.60;;;;;;;13.18;29.12;97420.13;5034542;28;20050;-31
2022/03/02 04:03:29;;;;;;;2.92;1.60;;;;;;;13.13;29.03;97410.47;5034307;28;20045;-31
2022/03/02 04:05:55;;;;;;;3.47;1.77;;;;;;;13.30;29.27;97412.09;5034461;28;20036;-31
2022/03/02 04:08:22;;;;;;;2.40;1.42;;;;;;;13.24;28.77;97407.56;5034233;28;20060;-31
2022/03/02 04:10:50;;;;;;;3.70;1.75;;;;;;;13.15;29.38;97399.94;5034483;28;20036;-32
2022/03/02 04:13:16;;;;;;;2.60;1.70;;;;;;;13.19;29.08;97406.09;5034507;28;20029;-31
2022/03/02 04:15:42;;;;;;;4.45;1.55;;;;;;;13.18;28.99;97398.34;5034303;28;20079;-31
2022/03/02 04:18:08;;;;;;;2.47;1.50;;;;;;;13.06;29.54;97402.44;5034590;28;20033;-31
2022/03/02 04:20:34;;;;;;;2.50;1.70;;;;;;;13.12;29.21;97395.31;5034342;28;20083;-32
2022/03/02 04:23:00;;;;;;;3.83;1.80;;;;;;;13.04;29.32;97398.59;5033930;28;20103;-31
2022/03/02 04:25:26;;;;;;;2.70;1.83;;;;;;;13.09;29.12;97390.72;5034154;28;20028;-32
2022/03/02 04:27:52;;;;;;;2.13;1.67;;;;;;;13.01;29.33;97389.31;5034094;28;20021;-32
2022/03/02 04:30:17;;;;;;;3.08;1.85;;;;;;;13.04;29.48;97385.75;5033988;28;20433;-31
2022/03/02 04:32:43;;;;;;;2.15;1.80;;;;;;;13.09;29.54;97379.06;5034119;28;20044;-31
2022/03/02 04:35:11;;;;;;;2.00;1.50;;;;;;;13.11;29.16;97379.38;5033855;28;20029;-31
2022/03/02 04:37:37;;;;;;;2.92;1.75;;;;;;;13.15;29.06;97372.72;5034130;28;20081;-32
2022/03/02 04:40:08;;;;;;;2.33;1.40;;;;;;;13.04;29.41;97379.53;5033798;28;20081;-31
2022/03/02 04:42:35;;;;;;;2.40;1.73;;;;;;;13.09;29.29;97374.38;5034021;28;20382;-31
2022/03/02 04:45:02;;;;;;;2.47;1.65;;;;;;;13.16;28.86;97373.47;5033683;28;20025;-30
2022/03/02 04:47:27;;;;;;;3.30;1.85;;;;;;;13.11;29.34;97379.38;5033800;28;20441;-32
2022/03/02 04:49:53;;;;;;;2.92;1.73;;;;;;;13.09;29.12;97376.34;5033603;28;20053;-31
2022/03/02 04:52:19;;;;;;;2.67;1.70;;;;;;;13.16;29.37;97382.41;5033691;28;20026;-31
2022/03/02 04:57:29;;;;;;;1.98;1.58;;;;;;;13.13;29.55;97379.72;5033947;28;20084;-31
2022/03/02 04:59:55;;;;;;;3.40;1.80;;;;;;;13.08;29.25;97385.69;5033827;28;20489;-31
2022/03/02 05:02:20;;;;;;;2.75;1.75;;;;;;;13.09;29.47;97385.28;5033450;28;20510;-31
2022/03/02 05:04:46;;;;;;;3.55;1.80;;;;;;;13.03;29.26;97376.03;5033650;28;20529;-31
2022/03/02 05:07:12;;;;;;;2.55;1.50;;;;;;;13.10;29.40;97386.81;5033438;28;20426;-32
2022/03/02 05:09:38;;;;;;;2.63;1.60;;;;;;;13.11;29.69;97380.16;5033279;28;20028;-31
2022/03/02 05:12:04;;;;;;;2.70;1.60;;;;;;;13.06;29.64;97375.22;5033219;28;20025;-31
2022/03/02 05:14:30;;;;;;;2.35;1.63;;;;;;;13.08;29.73;97375.56;5033471;28;20048;-31
2022/03/02 05:16:56;;;;;;;2.70;1.67;;;;;;;13.00;29.47;97371.41;5033414;28;20021;-31
2022/03/02 05:19:22;;;;;;;2.95;1.63;;;;;;;13.08;29.68;97369.34;5033337;28;20024;-32
2022/03/02 05:21:48;;;;;;;2.53;1.88;;;;;;;13.13;29.59;97363.41;5033258;28;20014;-31
2022/03/02 05:24:14;;;;;;;3.08;1.60;;;;;;;13.04;29.44;97372.13;5033372;28;20496;-31
2022/03/02 05:26:40;;;;;;;3.88;1.70;;;;;;;13.02;29.84;97374.50;5033559;28;20026;-32
2022/03/02 05:29:07;;;;;;;2.10;1.42;;;;;;;13.00;29.74;97371.41;5033256;28;20395;-32
2022/03/02 05:31:33;;;;;;;3.08;1.67;;;;;;;13.05;29.79;97364.72;5033239;28;20037;-31
2022/03/02 05:33:58;;;;;;;2.70;1.60;;;;;;;13.12;29.63;97362.63;5033329;28;20025;-32
2022/03/02 05:36:25;;;;;;;2.55;1.67;;;;;;;13.10;29.79;97367.75;5033428;28;20032;-31
2022/03/02 05:38:52;;;;;;;2.00;1.50;;;;;;;13.04;29.51;97372.13;5033036;28;20540;-31
2022/03/02 05:41:18;;;;;;;3.08;1.70;;;;;;;13.03;29.80;97370.59;5033185;28;20021;-32
2022/03/02 05:43:44;;;;;;;3.92;2.00;;;;;;;13.08;29.64;97369.34;5033069;28;20101;-32
2022/03/02 05:46:10;;;;;;;3.35;1.50;;;;;;;13.15;29.37;97369.22;5032968;28;20450;-31
2022/03/02 05:48:36;;;;;;;3.22;1.60;;;;;;;13.08;29.64;97375.56;5030473;28;20032;-31
2022/03/02 05:51:02;;;;;;;3.00;1.65;;;;;;;12.99;29.60;97375.34;5030977;28;20033;-31
2022/03/02 05:53:28;;;;;;;2.72;2.00;;;;;;;13.06;29.64;97375.22;5031119;28;20472;-31
2022/03/02 05:55:54;;;;;;;2.92;1.88;;;;;;;13.03;29.87;97375.28;5030981;28;20033;-31
2022/03/02 05:58:19;;;;;;;3.10;1.85;;;;;;;12.95;30.07;97372.69;5030813;28;20029;-31
2022/03/02 06:00:45;;;;;;;3.25;1.70;;;;;;;12.92;29.98;97364.59;5030646;28;20048;-31
2022/03/02 06:03:11;;;;;;;2.13;1.60;;;;;;;13.12;29.77;97370.78;5030722;28;20132;-30
2022/03/02 06:05:37;;;;;;;2.30;1.30;;;;;;;13.00;29.61;97362.47;5030960;28;20032;-31
2022/03/02 06:08:03;;;;;;;3.05;1.60;;;;;;;12.93;29.72;97363.41;5030885;28;20061;-31
2022/03/02 06:10:29;;;;;;;2.40;1.33;;;;;;;12.94;30.06;97359.50;5030843;28;20021;-31
2022/03/02 06:12:55;;;;;;;2.88;1.70;;;;;;;12.98;29.67;97373.06;5030720;28;20034;-31
2022/03/02 06:15:21;;;;;;;2.55;1.50;;;;;;;12.95;29.70;97369.22;5030951;28;20032;-31
2022/03/02 06:17:46;;;;;;;4.15;2.70;;;;;;;12.99;29.74;97378.06;5029379;28;20112;-31
2022/03/02 06:20:12;;;;;;;2.80;1.63;;;;;;;12.93;29.88;97382.47;5029467;28;20121;-31
2022/03/02 06:22:38;;;;;;;2.63;1.40;;;;;;;13.02;30.02;97377.22;5032331;28;20458;-31
2022/03/02 06:25:09;;;;;;;2.35;1.63;;;;;;;12.97;29.64;97399.50;5034133;28;20040;-31
2022/03/02 06:27:36;;;;;;;3.33;1.60;;;;;;;13.08;29.54;97396.59;5034250;28;20036;-31
2022/03/02 06:30:04;;;;;;;2.22;1.70;;;;;;;12.95;29.91;97389.03;5034292;28;20033;-31
2022/03/02 06:32:31;;;;;;;3.63;1.50;;;;;;;13.06;29.63;97386.09;5034013;28;20037;-31
2022/03/02 06:34:58;;;;;;;2.10;1.70;;;;;;;13.00;29.57;97393.22;5032934;28;20033;-32
2022/03/02 06:37:24;;;;;;;2.67;1.83;;;;;;;12.88;29.69;97393.84;5034042;28;20458;-33
2022/03/02 06:39:52;;;;;;;3.92;1.90;;;;;;;13.12;29.57;97395.31;5034249;28;20033;-31
2022/03/02 06:42:21;;;;;;;3.03;1.95;;;;;;;13.10;29.31;97400.44;5034085;28;20113;-31
2022/03/02 06:44:58;;;;;;;3.20;2.03;;;;;;;13.01;30.05;97396.69;5033765;28;20436;-31
2022/03/02 06:47:31;;;;;;;4.57;1.90;;;;;;;12.98;29.84;97392.13;5033359;28;20456;-31
2022/03/02 06:50:06;;;;;;;3.60;2.30;;;;;;;12.89;30.22;97398.09;5033650;28;20041;-31
2022/03/02 06:52:38;;;;;;;3.67;1.80;;;;;;;12.92;30.34;97400.00;5033843;28;20029;-32
2022/03/02 06:55:10;;;;;;;4.63;2.00;;;;;;;12.92;29.93;97395.31;5033564;28;20113;-31
2022/03/02 06:57:36;;;;;;;6.68;2.10;;;;;;;12.89;30.33;97389.94;5005455;28;20509;-31
2022/03/02 07:00:16;;;;;;;3.90;2.38;;;;;;;13.04;30.17;97393.91;4996412;28;20451;-31
2022/03/02 07:02:51;;;;;;;2.92;1.52;;;;;;;12.94;30.23;97390.22;4997950;28;20048;-32
2022/03/02 07:05:19;;;;;;;3.72;2.05;;;;;;;12.91;30.01;97393.00;4996928;28;20430;-33
2022/03/02 07:07:46;;;;;;;3.42;1.83;;;;;;;12.80;30.32;97398.66;4995956;28;20040;-31
2022/03/02 07:10:12;;;;;;;3.70;2.00;;;;;;;12.85;30.24;97398.19;4997069;28;20037;-31
2022/03/02 07:12:38;;;;;;;4.68;1.88;;;;;;;12.88;30.17;97407.44;4995989;28;21299;-31
2022/03/02 07:15:05;;;;;;;3.33;2.17;;;;;;;12.91;29.91;97406.63;4996015;28;20037;-31
2022/03/02 07:17:32;;;;;;;3.75;2.00;;;;;;;12.82;30.10;97409.13;5021846;28;20021;-32
2022/03/02 07:20:03;;;;;;;3.63;2.00;;;;;;;12.82;30.26;97404.44;5033219;28;20025;-32
2022/03/02 07:22:34;;;;;;;3.53;1.70;;;;;;;12.89;29.77;97389.94;5033401;28;20077;-33
2022/03/02 07:25:11;;;;;;;3.25;2.25;;;;;;;12.63;30.52;97391.56;5033035;28;20110;-31
2022/03/02 07:27:39;;;;;;;2.13;1.80;;;;;;;12.83;30.42;97376.03;5033461;28;20477;-31
2022/03/02 07:30:07;;;;;;;2.42;1.80;;;;;;;12.86;30.16;97377.91;5033110;28;20040;-31
2022/03/02 07:32:35;;;;;;;2.88;2.00;;;;;;;12.93;30.04;97377.78;5032377;28;20056;-31
2022/03/02 07:35:02;;;;;;;2.25;1.75;;;;;;;12.83;30.47;97369.84;5032919;28;20466;-31
2022/03/02 07:37:29;;;;;;;4.05;1.58;;;;;;;12.83;30.36;97367.09;5032772;28;20136;-31
2022/03/02 07:39:55;;;;;;;2.38;1.80;;;;;;;12.83;30.60;97372.56;5032825;28;20386;-32
2022/03/02 07:42:21;;;;;;;3.13;2.20;;;;;;;12.66;30.48;97373.63;5032923;28;20033;-33
2022/03/02 07:44:48;;;;;;;2.58;1.80;;;;;;;12.76;30.63;97383.56;5032854;28;20589;-31
2022/03/02 07:47:15;;;;;;;7.30;1.80;;;;;;;12.84;30.62;97388.47;5032778;28;20033;-31
2022/03/02 07:49:40;;;;;;;3.17;1.92;;;;;;;12.82;30.23;97390.06;5032529;28;20033;-31
2022/03/02 07:52:07;;;;;;;3.45;1.92;;;;;;;12.97;30.13;97383.19;5032640;28;20052;-31
2022/03/02 07:54:37;;;;;;;3.30;1.92;;;;;;;12.86;30.27;97377.13;5032896;28;20033;-31
2022/03/02 07:57:04;;;;;;;3.55;2.00;;;;;;;12.88;30.30;97375.53;5032762;28;20033;-31
2022/03/02 07:59:36;;;;;;;5.03;2.08;;;;;;;12.89;30.49;97376.31;5032652;28;20112;-32
2022/03/02 08:02:04;;;;;;;3.22;1.90;;;;;;;12.73;30.92;97378.97;5032268;28;20382;-32
2022/03/02 08:04:31;;;;;;;3.13;2.00;;;;;;;12.85;30.92;97386.53;5032490;28;20025;-31
2022/03/02 08:06:57;;;;;;;2.97;2.03;;;;;;;12.94;30.61;97389.44;5032547;28;20036;-31
2022/03/02 08:09:23;;;;;;;4.95;2.17;;;;;;;12.78;30.50;97392.84;5032490;28;20029;-31
2022/03/02 08:11:48;;;;;;;3.38;2.00;;;;;;;12.72;30.97;97388.31;5032307;28;20029;-31
2022/03/02 08:14:14;;;;;;;4.18;2.20;;;;;;;12.72;30.79;97386.38;5031410;28;20029;-32
2022/03/02 08:16:43;;;;;;;2.33;1.75;;;;;;;12.87;30.60;97389.56;5030737;28;20033;-31
2022/03/02 08:19:08;;;;;;;4.97;1.77;;;;;;;12.73;30.69;97385.19;5032359;28;20028;-31
2022/03/02 08:21:36;;;;;;;3.08;1.83;;;;;;;12.83;30.48;97384.22;5032007;28;20025;-31
2022/03/02 08:24:08;;;;;;;2.95;2.00;;;;;;;12.71;30.54;97373.16;5034778;28;20029;-31
2022/03/02 08:26:37;;;;;;;3.65;2.05;;;;;;;12.77;29.83;97371.50;5032602;28;20029;-31
2022/03/02 08:29:10;;;;;;;2.47;1.75;;;;;;;12.79;30.61;97353.56;5033769;28;20095;-31
2022/03/02 08:31:39;;;;;;;4.40;1.88;;;;;;;12.78;30.31;97356.69;5034103;28;20036;-31
2022/03/02 08:34:06;;;;;;;3.38;1.90;;;;;;;12.79;30.47;97347.34;5033672;28;20390;-32
2022/03/02 08:36:33;;;;;;;3.53;2.20;;;;;;;12.75;30.67;97350.13;5034076;28;20021;-31
2022/03/02 08:39:03;;;;;;;3.13;2.30;;;;;;;12.79;30.34;97339.94;5033768;28;20071;-31
2022/03/02 08:41:28;;;;;;;3.28;1.92;;;;;;;12.82;30.32;97344.56;5033962;28;20040;-31
2022/03/02 08:43:55;;;;;;;5.18;2.17;;;;;;;12.88;30.04;97347.53;5033737;28;20493;-31
2022/03/02 08:46:22;;;;;;;2.92;1.88;;;;;;;12.80;30.33;97338.00;5033079;28;20482;-33
2022/03/02 08:48:47;;;;;;;4.80;1.83;;;;;;;12.84;30.19;97339.47;5033775;28;20039;-31
2022/03/02 08:51:13;;;;;;;3.25;2.22;;;;;;;12.85;30.59;97334.78;5034838;28;20120;-31
2022/03/02 08:53:40;;;;;;;4.15;2.20;;;;;;;12.76;30.48;97343.50;5033705;28;20098;-31
2022/03/02 08:56:07;;;;;;;6.47;1.98;;;;;;;12.83;30.38;97345.34;5034804;28;20036;-32
2022/03/02 08:58:40;;;;;;;2.95;1.95;;;;;;;12.80;30.09;97359.78;5032946;28;20060;-31
2022/03/02 09:01:09;;;;;;;5.82;2.47;;;;;;;12.90;30.05;97347.91;5032787;28;20032;-31
2022/03/02 09:03:35;;;;;;;4.82;2.55;;;;;;;12.68;30.46;97360.38;5032928;28;20045;-32
2022/03/02 09:06:03;;;;;;;2.83;2.00;;;;;;;12.94;29.92;97354.06;5033444;28;20017;-31
2022/03/02 09:08:30;;;;;;;3.38;2.03;;;;;;;12.81;30.21;97350.41;5033311;28;20033;-31
2022/03/02 09:10:57;;;;;;;3.30;2.30;;;;;;;12.47;30.94;97335.13;5032586;28;20022;-31
2022/03/02 09:13:23;;;;;;;2.53;2.03;;;;;;;12.64;30.38;97343.34;5033579;28;20064;-31
2022/03/02 09:15:49;;;;;;;3.10;2.20;;;;;;;12.72;30.79;97342.81;5033387;28;20101;-31
2022/03/02 09:18:14;;;;;;;4.05;2.08;;;;;;;12.81;30.42;97340.31;5032290;28;20037;-32
2022/03/02 09:20:42;;;;;;;3.83;2.53;;;;;;;12.78;30.31;97329.47;5033394;28;20029;-31
2022/03/02 09:23:07;;;;;;;3.78;2.38;;;;;;;12.68;30.20;97335.91;5033273;28;20026;-31
2022/03/02 09:25:38;;;;;;;3.65;2.38;;;;;;;12.77;30.17;97333.38;5033395;28;20026;-31
2022/03/02 09:28:05;;;;;;;3.65;2.40;;;;;;;12.90;30.21;97331.56;5033454;28;20112;-32
2022/03/02 09:30:30;;;;;;;4.28;2.40;;;;;;;12.94;30.11;97324.09;5033174;28;20580;-31
2022/03/02 09:33:00;;;;;;;3.97;2.72;;;;;;;13.19;29.74;97335.28;5033114;28;20030;-32
2022/03/02 09:35:26;;;;;;;3.58;2.58;;;;;;;13.02;29.37;97336.38;5033302;28;20030;-31
2022/03/02 09:37:54;;;;;;;10.93;6.38;;;;;;;12.18;29.70;97329.41;5032990;28;20018;-28
2022/03/02 09:40:27;;;;;;;27.85;7.00;;;;;;;12.12;29.49;97338.44;5033360;28;20029;-28
2022/03/02 09:42:57;;;;;;;;;;;;;;;12.37;29.16;97327.13;5033671;28;20017;-27
2022/03/02 09:45:25;;;;;;;10.52;5.53;;;;;;;12.57;29.22;97333.38;5033133;28;19909;-27
2022/03/02 09:47:59;;;;;;;15.05;5.53;;;;;;;12.68;28.74;97333.94;5033106;28;20037;-28
2022/03/02 09:50:31;;;;;;;13.70;5.38;;;;;;;12.86;28.84;97330.88;5033093;28;20470;-27
2022/03/02 09:53:00;;;;;;;18.30;5.95;;;;;;;12.91;29.17;97322.22;5033070;28;20029;-27
2022/03/02 09:55:26;;;;;;;12.27;5.45;;;;;;;12.93;28.84;97334.22;5031711;28;20029;-27
2022/03/02 09:57:55;;;;;;;12.82;4.75;;;;;;;12.92;29.06;97326.47;5035726;28;20079;-28
2022/03/02 10:00:23;;;;;;;11.25;5.38;;;;;;;13.05;29.02;97332.81;5035049;28;20021;-28
2022/03/02 10:02:59;;;;;;;10.65;5.18;;;;;;;13.01;29.19;97326.66;5036426;28;20496;-28
2022/03/02 10:05:32;;;;;;;11.23;5.07;;;;;;;12.83;29.49;97334.44;5036645;28;20083;-27
2022/03/02 10:08:02;;;;;;;10.82;5.07;;;;;;;13.01;29.09;97334.84;5036533;28;20021;-28
2022/03/02 10:10:33;;;;;;;9.82;4.53;;;;;;;12.87;29.42;97349.50;5036789;28;20045;-28
2022/03/02 10:13:01;;;;;;;8.43;4.70;;;;;;;12.88;29.61;97342.09;5036685;28;20025;-27
2022/03/02 10:15:30;;;;;;;9.38;4.43;;;;;;;12.97;29.95;97339.59;5036413;28;20408;-27
2022/03/02 10:18:02;;;;;;;8.48;4.32;;;;;;;12.82;29.32;97330.94;5036545;28;20051;-27
2022/03/02 10:20:30;;;;;;;8.30;4.70;;;;;;;12.77;29.67;97330.66;5036543;28;20386;-27
2022/03/02 10:23:21;;;;;;;7.60;4.05;;;;;;;13.05;29.42;97335.53;5036279;28;20026;-27
2022/03/02 10:26:19;;;;;;;7.40;4.00;;;;;;;12.54;30.20;97334.97;5034078;28;20032;-29
2022/03/02 10:29:12;;;;;;;7.25;3.90;;;;;;;12.48;29.90;97333.94;5034218;28;20117;-27
2022/03/02 10:32:11;;;;;;;7.88;4.13;;;;;;;12.73;29.35;97329.97;5036302;28;20057;-28
2022/03/02 10:34:46;;;;;;;6.85;4.00;;;;;;;12.84;30.22;97331.31;5036220;28;20056;-28
2022/03/02 10:37:35;;;;;;;7.82;4.10;;;;;;;13.08;29.59;97329.28;5034883;28;20433;-27
2022/03/02 10:40:06;;;;;;;6.90;3.75;;;;;;;12.92;29.91;97337.38;5035950;28;20393;-27
2022/03/02 10:42:57;;;;;;;6.40;3.75;;;;;;;12.69;28.24;97324.59;5036359;28;20022;-27
2022/03/02 10:45:41;;;;;;;5.45;3.55;;;;;;;12.83;29.76;97329.00;5035525;28;20083;-27
2022/03/02 10:48:07;;;;;;;7.28;3.63;;;;;;;12.83;29.28;97329.00;5035968;28;20112;-27
2022/03/02 10:50:34;;;;;;;6.90;3.75;;;;;;;13.06;29.80;97320.75;5036033;28;20107;-27
2022/03/02 10:53:03;;;;;;;6.13;3.50;;;;;;;13.04;29.29;97317.66;5036230;28;20026;-27
2022/03/02 10:55:34;;;;;;;5.85;3.45;;;;;;;13.14;29.76;97322.16;5035723;28;20036;-28
2022/03/02 10:58:02;;;;;;;7.65;3.40;;;;;;;12.80;28.43;97313.50;5035865;28;20371;-27
2022/03/02 11:00:28;;;;;;;6.05;3.90;;;;;;;12.94;29.58;97307.78;5035764;28;20033;-28
2022/03/02 11:02:59;;;;;;;7.28;4.32;;;;;;;12.50;28.79;97311.72;5035405;28;20478;-27
2022/03/02 11:05:30;;;;;;;6.88;3.80;;;;;;;12.73;29.67;97300.81;5035632;28;20025;-27
2022/03/02 11:07:56;;;;;;;8.30;3.67;;;;;;;12.94;29.70;97296.88;5034881;28;20021;-28
2022/03/02 11:10:33;;;;;;;4.90;3.40;;;;;;;13.13;29.65;97301.53;5035633;28;20022;-27
2022/03/02 11:13:00;;;;;;;5.30;3.13;;;;;;;13.19;29.17;97291.72;5035498;28;20022;-27
2022/03/02 11:15:26;;;;;;;6.97;3.97;;;;;;;13.06;28.92;97288.06;5035381;28;20104;-28
2022/03/02 11:17:55;;;;;;;8.82;3.47;;;;;;;12.98;29.04;97280.47;5035645;28;20099;-27
2022/03/02 11:20:22;;;;;;;6.43;3.50;;;;;;;13.00;28.50;97278.06;5035245;28;20028;-28
2022/03/02 11:22:57;;;;;;;5.65;3.13;;;;;;;13.11;29.17;97273.16;5035192;28;20027;-27
2022/03/02 11:25:46;;;;;;;5.63;3.55;;;;;;;13.21;28.80;97270.25;5035197;28;20025;-28
2022/03/02 11:28:17;;;;;;;4.82;3.13;;;;;;;13.25;29.08;97259.28;5035090;28;20044;-28
2022/03/02 11:30:48;;;;;;;5.38;3.20;;;;;;;13.01;27.01;97258.59;5035069;28;20041;-27
2022/03/02 11:33:15;;;;;;;4.45;3.22;;;;;;;12.69;27.70;97258.50;5035074;28;20030;-28
2022/03/02 11:35:42;;;;;;;4.72;3.22;;;;;;;12.93;27.90;97263.44;5035117;28;20025;-28
2022/03/02 11:38:08;;;;;;;5.63;3.40;;;;;;;13.01;28.81;97247.72;5034967;28;20037;-27
2022/03/02 11:40:39;;;;;;;4.18;2.97;;;;;;;13.23;28.64;97243.34;5034930;28;20466;-27